createdAt,value
2023-04-29T00:02:12.460Z,35.42
2023-04-29T00:04:41.330Z,34.05
2023-04-29T00:07:10.437Z,33.13
2023-04-29T00:09:39.631Z,33.97
2023-04-29T00:12:08.303Z,34.80
2023-04-29T00:14:37.016Z,33.47
2023-04-29T00:17:05.910Z,34.25
2023-04-29T00:19:34.685Z,36.00
2023-04-29T00:22:03.571Z,34.45
2023-04-29T00:24:32.140Z,34.65
2023-04-29T00:27:00.836Z,34.38
2023-04-29T00:29:29.739Z,35.75
2023-04-29T00:32:01.306Z,35.38
2023-04-29T00:34:29.967Z,34.88
2023-04-29T00:36:58.606Z,33.10
2023-04-29T00:39:29.702Z,33.55
2023-04-29T00:41:58.390Z,34.05
2023-04-29T00:44:27.113Z,33.40
2023-04-29T00:46:55.802Z,33.53
2023-04-29T00:49:24.529Z,34.33
2023-04-29T00:51:53.384Z,34.03
2023-04-29T00:54:22.700Z,31.73
2023-04-29T00:56:52.405Z,32.20
2023-04-29T00:59:21.839Z,35.05
2023-04-29T01:01:50.537Z,34.20
2023-04-29T01:04:19.728Z,31.90
2023-04-29T01:07:17.938Z,35.55
2023-04-29T01:10:02.350Z,34.05
2023-04-29T01:13:01.599Z,32.78
2023-04-29T01:15:39.358Z,34.50
2023-04-29T01:18:21.647Z,33.80
2023-04-29T01:20:50.916Z,32.15
2023-04-29T01:23:19.546Z,33.88
2023-04-29T01:25:49.875Z,32.85
2023-04-29T01:28:47.662Z,34.83
2023-04-29T01:31:40.121Z,32.55
2023-04-29T01:34:35.433Z,32.10
2023-04-29T01:37:24.145Z,34.55
2023-04-29T01:40:20.307Z,33.67
2023-04-29T01:43:12.762Z,32.13
2023-04-29T01:45:42.868Z,31.52
2023-04-29T01:48:11.692Z,32.80
2023-04-29T01:50:40.411Z,32.75
2023-04-29T01:53:09.273Z,32.10
2023-04-29T01:55:38.054Z,32.88
2023-04-29T01:58:06.690Z,33.75
2023-04-29T02:00:35.436Z,31.80
2023-04-29T02:03:04.516Z,34.15
2023-04-29T02:05:35.023Z,33.90
2023-04-29T02:08:04.203Z,35.38
2023-04-29T02:10:32.903Z,33.83
2023-04-29T02:13:02.491Z,32.58
2023-04-29T02:15:31.279Z,31.20
2023-04-29T02:18:00.159Z,31.38
2023-04-29T02:20:29.061Z,29.98
2023-04-29T02:22:57.885Z,31.70
2023-04-29T02:25:26.561Z,30.73
2023-04-29T02:27:55.267Z,33.03
2023-04-29T02:30:23.992Z,32.25
2023-04-29T02:32:54.050Z,32.55
2023-04-29T02:35:22.970Z,31.95
2023-04-29T02:37:51.655Z,32.03
2023-04-29T02:40:20.398Z,31.73
2023-04-29T02:42:49.141Z,32.72
2023-04-29T02:45:18.334Z,32.33
2023-04-29T02:47:47.068Z,31.75
2023-04-29T02:50:15.826Z,32.47
2023-04-29T02:52:44.432Z,32.22
2023-04-29T02:55:13.050Z,32.05
2023-04-29T02:57:42.179Z,32.08
2023-04-29T03:00:11.539Z,31.70
2023-04-29T03:02:40.271Z,32.35
2023-04-29T03:05:09.333Z,31.10
2023-04-29T03:07:38.123Z,30.35
2023-04-29T03:10:07.514Z,31.17
2023-04-29T03:12:36.304Z,30.77
2023-04-29T03:15:06.173Z,30.27
2023-04-29T03:17:35.677Z,30.23
2023-04-29T03:20:05.815Z,29.17
2023-04-29T03:22:34.768Z,28.38
2023-04-29T03:25:03.604Z,29.40
2023-04-29T03:27:32.233Z,30.08
2023-04-29T03:30:01.046Z,29.27
2023-04-29T03:32:29.730Z,30.52
2023-04-29T03:34:58.622Z,31.48
2023-04-29T03:37:27.374Z,29.40
2023-04-29T03:39:56.125Z,29.45
2023-04-29T03:42:24.746Z,30.23
2023-04-29T03:44:53.342Z,29.10
2023-04-29T03:47:21.996Z,28.88
2023-04-29T03:49:50.996Z,27.63
2023-04-29T03:52:19.882Z,28.02
2023-04-29T03:54:48.477Z,26.55
2023-04-29T03:57:17.067Z,26.05
2023-04-29T03:59:46.518Z,25.80
2023-04-29T04:02:15.230Z,24.77
2023-04-29T04:04:44.330Z,25.30
2023-04-29T04:07:13.250Z,25.92
2023-04-29T04:09:42.087Z,24.90
2023-04-29T04:12:10.740Z,25.65
2023-04-29T04:14:39.402Z,24.55
2023-04-29T04:17:08.633Z,24.48
2023-04-29T04:19:37.406Z,24.48
2023-04-29T04:22:06.378Z,25.83
2023-04-29T04:24:35.041Z,25.60
2023-04-29T04:27:03.638Z,26.88
2023-04-29T04:29:32.237Z,24.35
2023-04-29T04:32:01.166Z,25.17
2023-04-29T04:34:30.088Z,26.60
2023-04-29T04:36:58.839Z,24.27
2023-04-29T04:39:27.903Z,23.83
2023-04-29T04:41:56.533Z,23.75
2023-04-29T04:44:25.283Z,23.90
2023-04-29T04:46:53.909Z,23.65
2023-04-29T04:49:22.619Z,23.15
2023-04-29T04:51:51.414Z,22.88
2023-04-29T04:54:20.159Z,22.95
2023-04-29T04:56:49.475Z,22.25
2023-04-29T04:59:18.151Z,22.77
2023-04-29T05:01:47.138Z,22.42
2023-04-29T05:04:16.771Z,21.05
2023-04-29T05:06:47.714Z,22.45
2023-04-29T05:09:16.588Z,22.52
2023-04-29T05:11:45.225Z,20.73
2023-04-29T05:14:13.937Z,21.63
2023-04-29T05:16:42.689Z,23.35
2023-04-29T05:19:11.412Z,23.45
2023-04-29T05:21:40.102Z,22.35
2023-04-29T05:24:09.459Z,23.25
2023-04-29T05:26:39.138Z,22.85
2023-04-29T05:29:07.897Z,24.73
2023-04-29T05:31:36.618Z,22.88
2023-04-29T05:34:05.607Z,22.70
2023-04-29T05:36:34.258Z,22.83
2023-04-29T05:39:02.870Z,21.77
2023-04-29T05:41:31.507Z,21.50
2023-04-29T05:44:00.150Z,22.50
2023-04-29T05:46:28.820Z,24.45
2023-04-29T05:48:57.445Z,21.92
2023-04-29T05:51:26.186Z,22.38
2023-04-29T05:53:55.106Z,22.35
2023-04-29T05:56:24.434Z,22.67
2023-04-29T05:58:53.129Z,21.23
2023-04-29T06:01:21.718Z,22.10
2023-04-29T06:03:50.637Z,21.77
2023-04-29T06:06:19.763Z,21.58
2023-04-29T06:08:48.484Z,20.55
2023-04-29T06:11:17.211Z,21.73
2023-04-29T06:13:45.820Z,22.13
2023-04-29T06:16:14.453Z,22.50
2023-04-29T06:18:43.097Z,23.73
2023-04-29T06:21:11.750Z,22.42
2023-04-29T06:23:40.385Z,22.45
2023-04-29T06:26:09.074Z,20.70
2023-04-29T06:28:38.005Z,21.15
2023-04-29T06:31:06.672Z,20.42
2023-04-29T06:33:35.659Z,21.88
2023-04-29T06:36:04.420Z,22.38
2023-04-29T06:38:33.065Z,21.27
2023-04-29T06:41:02.028Z,21.60
2023-04-29T06:43:31.007Z,21.40
2023-04-29T06:45:59.771Z,21.90
2023-04-29T06:48:29.007Z,21.30
2023-04-29T06:50:59.589Z,21.55
2023-04-29T06:53:28.288Z,21.35
2023-04-29T06:55:57.004Z,22.88
2023-04-29T06:58:25.629Z,22.48
2023-04-29T07:00:54.386Z,23.08
2023-04-29T07:03:23.876Z,22.23
2023-04-29T07:05:52.769Z,22.63
2023-04-29T07:08:21.494Z,21.83
2023-04-29T07:11:05.445Z,22.55
2023-04-29T07:13:34.310Z,21.63
2023-04-29T07:16:02.971Z,21.52
2023-04-29T07:18:31.824Z,20.70
2023-04-29T07:21:04.025Z,21.98
2023-04-29T07:23:32.683Z,21.60
2023-04-29T07:26:09.890Z,21.45
2023-04-29T07:28:38.539Z,22.20
2023-04-29T07:31:08.578Z,21.23
2023-04-29T07:33:37.640Z,21.95
2023-04-29T07:36:08.354Z,21.95
2023-04-29T07:38:37.917Z,21.23
2023-04-29T07:41:06.704Z,22.17
2023-04-29T07:43:35.479Z,22.23
2023-04-29T07:46:04.141Z,21.23
2023-04-29T07:48:32.863Z,21.88
2023-04-29T07:51:01.569Z,22.80
2023-04-29T07:53:30.392Z,21.20
2023-04-29T07:55:59.109Z,21.15
2023-04-29T07:58:30.003Z,20.83
2023-04-29T08:00:58.690Z,22.27
2023-04-29T08:03:29.290Z,22.20
2023-04-29T08:06:04.403Z,23.67
2023-04-29T08:08:33.574Z,22.85
2023-04-29T08:11:02.314Z,20.55
2023-04-29T08:13:31.048Z,21.27
2023-04-29T08:15:59.853Z,21.17
2023-04-29T08:18:28.936Z,20.65
2023-04-29T08:20:57.602Z,21.23
2023-04-29T08:23:26.392Z,21.35
2023-04-29T08:25:56.852Z,20.38
2023-04-29T08:28:25.715Z,20.55
2023-04-29T08:30:54.411Z,20.27
2023-04-29T08:33:23.463Z,19.05
2023-04-29T08:36:01.424Z,19.90
2023-04-29T08:38:30.220Z,19.95
2023-04-29T08:40:59.131Z,20.27
2023-04-29T08:43:28.394Z,22.15
2023-04-29T08:45:59.335Z,20.60
2023-04-29T08:48:29.961Z,21.00
2023-04-29T08:51:00.423Z,21.10
2023-04-29T08:53:29.174Z,20.00
2023-04-29T08:56:02.504Z,22.30
2023-04-29T08:58:35.436Z,20.88
2023-04-29T09:01:04.785Z,21.02
2023-04-29T09:03:58.070Z,21.55
2023-04-29T09:06:27.649Z,22.17
2023-04-29T09:08:56.402Z,21.27
2023-04-29T09:11:25.272Z,21.60
2023-04-29T09:13:59.486Z,20.77
2023-04-29T09:16:28.725Z,22.17
2023-04-29T09:18:58.513Z,21.50
2023-04-29T09:21:29.291Z,23.17
2023-04-29T09:24:00.925Z,22.75
2023-04-29T09:26:37.737Z,23.60
2023-04-29T09:29:11.036Z,22.67
2023-04-29T09:31:41.515Z,22.10
2023-04-29T09:34:10.299Z,22.85
2023-04-29T09:36:40.890Z,23.75
2023-04-29T09:39:13.517Z,24.63
2023-04-29T09:41:44.817Z,21.58
2023-04-29T09:44:13.496Z,24.23
2023-04-29T09:46:42.225Z,22.08
2023-04-29T09:49:32.291Z,21.30
2023-04-29T09:52:03.047Z,22.90
2023-04-29T09:54:33.673Z,22.48
2023-04-29T09:57:07.388Z,23.08
2023-04-29T09:59:38.580Z,22.33
2023-04-29T10:02:16.491Z,22.98
2023-04-29T10:04:48.153Z,22.95
2023-04-29T10:07:18.408Z,22.73
2023-04-29T10:09:48.925Z,24.90
2023-04-29T10:12:19.599Z,23.80
2023-04-29T10:15:14.825Z,24.10
2023-04-29T10:18:04.510Z,24.65
2023-04-29T10:20:34.134Z,27.58
2023-04-29T10:23:04.465Z,29.20
2023-04-29T10:25:34.941Z,30.10
2023-04-29T10:28:05.955Z,32.15
2023-04-29T10:30:35.299Z,39.17
2023-04-29T10:33:05.421Z,33.53
2023-04-29T10:35:34.764Z,31.02
2023-04-29T10:38:10.171Z,31.63
2023-04-29T10:40:46.676Z,29.40
2023-04-29T10:43:16.193Z,30.75
2023-04-29T10:45:44.969Z,31.10
2023-04-29T10:48:14.924Z,30.83
2023-04-29T10:50:51.989Z,30.15
2023-04-29T10:53:21.722Z,30.13
2023-04-29T10:55:59.462Z,28.98
2023-04-29T10:58:47.288Z,28.98
2023-04-29T11:01:17.996Z,30.00
2023-04-29T11:03:51.181Z,29.27
2023-04-29T11:06:19.955Z,29.35
2023-04-29T11:08:49.667Z,29.92
2023-04-29T11:11:18.364Z,30.83
2023-04-29T11:13:48.960Z,30.13
2023-04-29T11:16:17.706Z,29.58
2023-04-29T11:19:07.612Z,31.02
2023-04-29T11:21:38.272Z,29.63
2023-04-29T11:24:08.178Z,30.25
2023-04-29T11:26:37.525Z,28.92
2023-04-29T11:29:11.498Z,34.10
2023-04-29T11:31:40.487Z,30.83
2023-04-29T11:34:09.258Z,30.65
2023-04-29T11:36:38.137Z,32.45
2023-04-29T11:39:06.945Z,30.95
2023-04-29T11:41:36.755Z,31.58
2023-04-29T11:44:07.729Z,30.17
2023-04-29T11:46:36.528Z,31.75
2023-04-29T11:49:05.364Z,31.50
2023-04-29T11:51:34.210Z,29.33
2023-04-29T11:54:02.970Z,29.63
2023-04-29T11:56:31.795Z,29.20
2023-04-29T11:59:02.242Z,29.60
2023-04-29T12:01:31.049Z,28.10
2023-04-29T12:04:01.072Z,27.70
2023-04-29T12:06:31.173Z,28.00
2023-04-29T12:09:02.016Z,27.50
2023-04-29T12:11:30.711Z,26.80
2023-04-29T12:14:02.044Z,26.35
2023-04-29T12:16:31.380Z,27.60
2023-04-29T12:19:01.629Z,27.70
2023-04-29T12:21:30.384Z,26.00
2023-04-29T12:24:02.342Z,24.80
2023-04-29T12:26:33.011Z,25.38
2023-04-29T12:29:01.740Z,26.23
2023-04-29T12:31:37.801Z,24.98
2023-04-29T12:34:08.424Z,24.83
2023-04-29T12:36:38.804Z,25.48
2023-04-29T12:39:11.263Z,24.77
2023-04-29T12:41:42.792Z,24.25
2023-04-29T12:44:11.985Z,25.42
2023-04-29T12:46:42.336Z,23.90
2023-04-29T12:49:11.081Z,22.02
2023-04-29T12:51:39.702Z,23.27
2023-04-29T12:54:08.604Z,21.90
2023-04-29T12:56:37.674Z,20.38
2023-04-29T12:59:08.726Z,20.70
2023-04-29T13:01:38.318Z,19.75
2023-04-29T13:04:09.796Z,20.05
2023-04-29T13:06:40.540Z,19.00
2023-04-29T13:09:18.568Z,19.05
2023-04-29T13:11:48.261Z,20.02
2023-04-29T13:14:17.861Z,19.27
2023-04-29T13:16:47.143Z,20.00
2023-04-29T13:19:32.108Z,18.48
2023-04-29T13:22:04.490Z,19.20
2023-04-29T13:24:34.146Z,19.60
2023-04-29T13:27:03.993Z,18.13
2023-04-29T13:29:32.952Z,18.90
2023-04-29T13:32:01.854Z,18.02
2023-04-29T13:34:30.551Z,18.45
2023-04-29T13:36:59.218Z,18.15
2023-04-29T13:39:27.825Z,18.92
2023-04-29T13:41:58.926Z,18.50
2023-04-29T13:44:35.709Z,19.23
2023-04-29T13:47:08.355Z,19.33
2023-04-29T13:50:09.929Z,18.60
2023-04-29T13:53:10.471Z,18.65
2023-04-29T13:56:01.692Z,19.00
2023-04-29T14:00:55.104Z,18.67
2023-04-29T14:03:24.129Z,19.27
2023-04-29T14:05:53.372Z,19.50
2023-04-29T14:08:22.065Z,18.25
2023-04-29T14:10:50.813Z,18.73
2023-04-29T14:13:19.523Z,18.88
2023-04-29T14:15:48.466Z,18.27
2023-04-29T14:18:17.245Z,18.65
2023-04-29T14:20:46.064Z,17.67
2023-04-29T14:23:14.715Z,18.02
2023-04-29T14:25:43.595Z,18.85
2023-04-29T14:28:12.408Z,16.95
2023-04-29T14:30:42.568Z,16.77
2023-04-29T14:33:11.799Z,18.20
2023-04-29T14:35:40.482Z,17.80
2023-04-29T14:38:09.589Z,17.88
2023-04-29T14:40:40.094Z,18.42
2023-04-29T14:43:08.895Z,17.67
2023-04-29T14:45:38.579Z,15.50
2023-04-29T14:48:07.349Z,15.20
2023-04-29T14:50:35.967Z,14.85
2023-04-29T14:53:05.245Z,14.30
2023-04-29T14:55:34.078Z,15.15
2023-04-29T14:58:05.859Z,14.68
2023-04-29T15:00:34.484Z,15.07
2023-04-29T15:03:04.110Z,14.02
2023-04-29T15:05:32.882Z,14.60
2023-04-29T15:08:02.581Z,14.43
2023-04-29T15:10:31.939Z,14.40
2023-04-29T15:13:00.585Z,12.85
2023-04-29T15:15:29.851Z,13.32
2023-04-29T15:17:58.482Z,14.32
2023-04-29T15:20:27.331Z,13.85
2023-04-29T15:22:56.054Z,13.50
2023-04-29T15:25:26.594Z,13.15
2023-04-29T15:27:56.747Z,13.93
2023-04-29T15:30:25.449Z,14.15
2023-04-29T15:32:54.698Z,13.68
2023-04-29T15:35:23.707Z,13.73
2023-04-29T15:37:52.377Z,14.07
2023-04-29T15:40:21.175Z,14.00
2023-04-29T15:42:49.775Z,13.93
2023-04-29T15:45:18.480Z,13.57
2023-04-29T15:47:47.849Z,13.63
2023-04-29T15:50:16.491Z,13.77
2023-04-29T15:52:45.155Z,14.50
2023-04-29T15:55:13.904Z,13.80
2023-04-29T15:57:43.635Z,15.63
2023-04-29T16:00:13.434Z,14.70
2023-04-29T16:02:42.081Z,16.30
2023-04-29T16:05:11.004Z,13.80
2023-04-29T16:07:39.664Z,14.88
2023-04-29T16:10:08.659Z,16.40
2023-04-29T16:12:37.289Z,16.17
2023-04-29T16:15:07.154Z,16.75
2023-04-29T16:17:35.876Z,16.08
2023-04-29T16:20:04.952Z,15.27
2023-04-29T16:22:33.600Z,16.10
2023-04-29T16:25:02.676Z,15.55
2023-04-29T16:27:31.717Z,15.00
2023-04-29T16:30:00.847Z,14.27
2023-04-29T16:32:29.997Z,13.38
2023-04-29T16:35:00.830Z,13.77
2023-04-29T16:37:30.267Z,13.15
2023-04-29T16:39:59.239Z,12.68
2023-04-29T16:42:28.044Z,13.68
2023-04-29T16:44:56.877Z,14.55
2023-04-29T16:47:26.430Z,13.95
2023-04-29T16:49:56.347Z,14.27
2023-04-29T16:52:25.216Z,14.32
2023-04-29T16:54:54.151Z,13.82
2023-04-29T16:57:23.060Z,13.98
2023-04-29T17:01:13.081Z,14.25
2023-04-29T17:03:43.049Z,13.13
2023-04-29T17:06:12.327Z,13.45
2023-04-29T17:08:41.406Z,13.50
2023-04-29T17:11:10.101Z,13.82
2023-04-29T17:13:38.793Z,13.25
2023-04-29T17:16:08.555Z,13.85
2023-04-29T17:18:38.360Z,12.85
2023-04-29T17:21:07.162Z,12.95
2023-04-29T17:23:36.257Z,12.77
2023-04-29T17:26:06.099Z,12.95
2023-04-29T17:28:34.766Z,13.82
2023-04-29T17:31:03.433Z,12.98
2023-04-29T17:33:36.247Z,13.10
2023-04-29T17:38:35.284Z,13.50
2023-04-29T17:41:04.610Z,12.90
2023-04-29T17:43:34.718Z,11.50
2023-04-29T17:46:03.374Z,11.27
2023-04-29T17:48:33.148Z,11.10
2023-04-29T17:51:01.863Z,11.82
2023-04-29T17:53:30.666Z,10.43
2023-04-29T17:56:00.265Z,11.30
2023-04-29T17:58:29.824Z,11.18
2023-04-29T18:00:58.708Z,12.80
2023-04-29T18:03:28.214Z,13.95
2023-04-29T18:05:56.967Z,11.70
2023-04-29T18:08:25.674Z,11.27
2023-04-29T18:10:55.444Z,11.45
2023-04-29T18:13:26.557Z,12.10
2023-04-29T18:15:56.542Z,11.13
2023-04-29T18:18:25.351Z,11.13
2023-04-29T18:20:54.016Z,12.45
2023-04-29T18:23:23.577Z,10.93
2023-04-29T18:25:52.219Z,11.70
2023-04-29T18:28:25.334Z,11.45
2023-04-29T18:30:54.520Z,11.45
2023-04-29T18:33:24.214Z,12.45
2023-04-29T18:35:53.026Z,12.35
2023-04-29T18:38:22.025Z,11.85
2023-04-29T18:40:50.778Z,12.00
2023-04-29T18:43:25.234Z,11.73
2023-04-29T18:45:53.922Z,12.70
2023-04-29T18:48:33.584Z,13.23
2023-04-29T18:51:05.117Z,13.48
2023-04-29T18:56:28.507Z,12.98
2023-04-29T18:58:57.550Z,13.15
2023-04-29T19:01:26.758Z,12.80
2023-04-29T19:03:56.141Z,13.55
2023-04-29T19:06:24.804Z,14.82
2023-04-29T19:08:53.529Z,15.23
2023-04-29T19:11:23.433Z,14.63
2023-04-29T19:13:52.087Z,16.38
2023-04-29T19:16:24.132Z,14.75
2023-04-29T19:18:53.773Z,14.13
2023-04-29T19:21:23.903Z,14.32
2023-04-29T19:23:53.223Z,15.63
2023-04-29T19:26:22.160Z,15.43
2023-04-29T19:28:50.762Z,14.65
2023-04-29T19:31:19.427Z,15.07
2023-04-29T19:33:49.012Z,15.30
2023-04-29T19:36:20.729Z,14.57
2023-04-29T19:38:50.171Z,14.88
2023-04-29T19:41:21.744Z,14.25
2023-04-29T19:43:50.384Z,14.57
2023-04-29T19:46:19.059Z,13.90
2023-04-29T19:48:47.801Z,14.73
2023-04-29T19:51:16.871Z,14.80
2023-04-29T19:53:57.464Z,14.60
2023-04-29T19:56:32.038Z,14.27
2023-04-29T19:59:00.790Z,14.88
2023-04-29T20:01:29.496Z,13.43
2023-04-29T20:03:58.398Z,14.90
2023-04-29T20:06:28.085Z,14.77
2023-04-29T20:08:57.072Z,14.02
2023-04-29T20:11:25.884Z,14.18
2023-04-29T20:13:54.714Z,14.80
2023-04-29T20:16:24.511Z,14.05
2023-04-29T20:18:53.328Z,13.60
2023-04-29T20:21:22.057Z,14.75
2023-04-29T20:23:50.884Z,13.55
2023-04-29T20:26:19.946Z,14.43
2023-04-29T20:28:58.160Z,14.48
2023-04-29T20:31:27.082Z,14.32
2023-04-29T20:34:03.989Z,14.38
2023-04-29T20:36:32.914Z,13.93
2023-04-29T20:39:07.555Z,14.52
2023-04-29T20:41:36.384Z,13.82
2023-04-29T20:44:05.456Z,14.32
2023-04-29T20:46:34.176Z,14.10
2023-04-29T20:49:04.129Z,15.07
2023-04-29T20:51:33.819Z,14.52
2023-04-29T20:54:02.621Z,15.50
2023-04-29T20:56:31.911Z,15.73
2023-04-29T20:59:00.736Z,16.08
2023-04-29T21:04:11.411Z,16.58
2023-04-29T21:06:40.404Z,16.30
2023-04-29T21:09:19.512Z,16.90
2023-04-29T21:11:48.643Z,16.02
2023-04-29T21:14:17.345Z,15.48
2023-04-29T21:16:46.075Z,15.82
2023-04-29T21:19:14.874Z,15.27
2023-04-29T21:21:43.682Z,16.27
2023-04-29T21:24:21.371Z,15.82
2023-04-29T21:26:51.395Z,15.85
2023-04-29T21:29:21.147Z,16.83
2023-04-29T21:31:49.827Z,15.40
2023-04-29T21:34:18.688Z,15.50
2023-04-29T21:36:47.316Z,15.95
2023-04-29T21:39:16.044Z,15.57
2023-04-29T21:41:47.132Z,16.25
2023-04-29T21:44:16.608Z,15.25
2023-04-29T21:46:54.790Z,15.45
2023-04-29T21:49:30.672Z,14.98
2023-04-29T21:52:00.603Z,16.02
2023-04-29T21:54:34.572Z,15.48
2023-04-29T21:57:03.939Z,16.33
2023-04-29T21:59:35.697Z,16.95
2023-04-29T22:02:15.233Z,15.73
2023-04-29T22:04:43.934Z,15.98
2023-04-29T22:07:12.609Z,16.00
2023-04-29T22:09:41.357Z,15.75
2023-04-29T22:12:10.148Z,15.77
2023-04-29T22:14:38.924Z,16.50
2023-04-29T22:17:08.060Z,22.02
2023-04-29T22:19:38.324Z,17.77
2023-04-29T22:22:07.545Z,15.90
2023-04-29T22:24:36.320Z,15.88
2023-04-29T22:27:05.009Z,16.30
2023-04-29T22:29:33.749Z,16.20
2023-04-29T22:32:02.574Z,16.52
2023-04-29T22:34:31.547Z,16.15
2023-04-29T22:37:01.047Z,16.00
2023-04-29T22:39:29.741Z,15.95
2023-04-29T22:41:58.406Z,16.73
2023-04-29T22:44:27.203Z,16.63
2023-04-29T22:46:55.945Z,16.50
2023-04-29T22:49:26.603Z,16.70
2023-04-29T22:51:55.321Z,16.83
2023-04-29T22:54:23.927Z,17.15
2023-04-29T22:56:52.521Z,17.25
2023-04-29T22:59:21.969Z,16.55
2023-04-29T23:01:50.618Z,16.88
2023-04-29T23:04:30.229Z,16.20
2023-04-29T23:07:08.665Z,16.48
2023-04-29T23:09:37.462Z,16.60
2023-04-29T23:12:06.293Z,17.63
2023-04-29T23:14:34.896Z,17.05
2023-04-29T23:17:03.561Z,16.73
2023-04-29T23:19:32.165Z,16.67
2023-04-29T23:22:00.857Z,17.02
2023-04-29T23:24:29.686Z,17.10
2023-04-29T23:27:04.382Z,16.50
2023-04-29T23:29:35.287Z,18.90
2023-04-29T23:32:04.210Z,15.77
2023-04-29T23:34:32.883Z,16.15
2023-04-29T23:37:02.332Z,15.43
2023-04-29T23:39:30.963Z,15.50
2023-04-29T23:41:59.557Z,15.90
2023-04-29T23:44:32.353Z,15.68
2023-04-29T23:49:29.627Z,16.27
2023-04-29T23:51:58.250Z,18.13
2023-04-29T23:54:26.847Z,17.52
2023-04-29T23:56:59.256Z,16.75
2023-04-29T23:59:35.437Z,16.45
